sensor_id;sensor_type;location;lat;lon;timestamp;P1;durP1;ratioP1;P2;durP2;ratioP2
25653;SDS011;13511;48.622;9.230;2023-10-09T00:01:34;9.88;;;6.50;;
25653;SDS011;13511;48.622;9.230;2023-10-09T00:04:03;12.65;;;6.45;;
25653;SDS011;13511;48.622;9.230;2023-10-09T00:06:29;18.88;;;6.93;;
25653;SDS011;13511;48.622;9.230;2023-10-09T00:09:04;12.07;;;6.57;;
25653;SDS011;13511;48.622;9.230;2023-10-09T00:11:48;12.13;;;7.05;;
25653;SDS011;13511;48.622;9.230;2023-10-09T00:14:21;13.55;;;6.53;;
25653;SDS011;13511;48.622;9.230;2023-10-09T00:16:47;14.90;;;6.03;;
25653;SDS011;13511;48.622;9.230;2023-10-09T00:19:21;12.75;;;6.75;;
25653;SDS011;13511;48.622;9.230;2023-10-09T00:21:55;14.10;;;7.25;;
25653;SDS011;13511;48.622;9.230;2023-10-09T00:24:23;12.02;;;6.70;;
25653;SDS011;13511;48.622;9.230;2023-10-09T00:26:55;10.20;;;7.07;;
25653;SDS011;13511;48.622;9.230;2023-10-09T00:29:36;9.77;;;5.72;;
25653;SDS011;13511;48.622;9.230;2023-10-09T00:32:09;11.70;;;6.40;;
25653;SDS011;13511;48.622;9.230;2023-10-09T00:34:52;9.93;;;6.35;;
25653;SDS011;13511;48.622;9.230;2023-10-09T00:39:50;9.52;;;5.80;;
25653;SDS011;13511;48.622;9.230;2023-10-09T00:42:22;16.38;;;7.53;;
25653;SDS011;13511;48.622;9.230;2023-10-09T00:44:56;9.60;;;5.30;;
25653;SDS011;13511;48.622;9.230;2023-10-09T00:47:28;14.30;;;6.78;;
25653;SDS011;13511;48.622;9.230;2023-10-09T00:50:08;12.80;;;6.43;;
25653;SDS011;13511;48.622;9.230;2023-10-09T00:52:38;12.05;;;6.25;;
25653;SDS011;13511;48.622;9.230;2023-10-09T00:55:05;14.68;;;6.82;;
25653;SDS011;13511;48.622;9.230;2023-10-09T00:57:45;12.50;;;6.37;;
25653;SDS011;13511;48.622;9.230;2023-10-09T01:00:25;16.27;;;6.57;;
25653;SDS011;13511;48.622;9.230;2023-10-09T01:03:01;13.43;;;7.18;;
25653;SDS011;13511;48.622;9.230;2023-10-09T01:05:43;14.57;;;7.00;;
25653;SDS011;13511;48.622;9.230;2023-10-09T01:08:28;16.00;;;6.53;;
25653;SDS011;13511;48.622;9.230;2023-10-09T01:11:12;10.25;;;7.68;;
25653;SDS011;13511;48.622;9.230;2023-10-09T01:13:47;14.88;;;6.32;;
25653;SDS011;13511;48.622;9.230;2023-10-09T01:16:14;12.95;;;6.00;;
25653;SDS011;13511;48.622;9.230;2023-10-09T01:18:43;18.63;;;6.78;;
25653;SDS011;13511;48.622;9.230;2023-10-09T01:21:10;13.68;;;6.20;;
25653;SDS011;13511;48.622;9.230;2023-10-09T01:23:43;16.73;;;6.75;;
25653;SDS011;13511;48.622;9.230;2023-10-09T01:29:00;10.65;;;6.43;;
25653;SDS011;13511;48.622;9.230;2023-10-09T01:31:26;8.35;;;6.10;;
25653;SDS011;13511;48.622;9.230;2023-10-09T01:33:59;10.10;;;6.55;;
25653;SDS011;13511;48.622;9.230;2023-10-09T01:36:25;12.02;;;6.85;;
25653;SDS011;13511;48.622;9.230;2023-10-09T01:38:59;12.85;;;7.15;;
25653;SDS011;13511;48.622;9.230;2023-10-09T01:41:25;14.50;;;6.53;;
25653;SDS011;13511;48.622;9.230;2023-10-09T01:43:51;7.40;;;5.32;;
25653;SDS011;13511;48.622;9.230;2023-10-09T01:46:22;11.52;;;6.25;;
25653;SDS011;13511;48.622;9.230;2023-10-09T01:48:48;12.45;;;6.03;;
25653;SDS011;13511;48.622;9.230;2023-10-09T01:51:14;11.25;;;6.18;;
25653;SDS011;13511;48.622;9.230;2023-10-09T01:53:44;11.48;;;6.28;;
25653;SDS011;13511;48.622;9.230;2023-10-09T01:56:13;8.95;;;6.00;;
25653;SDS011;13511;48.622;9.230;2023-10-09T01:58:42;8.65;;;5.60;;
25653;SDS011;13511;48.622;9.230;2023-10-09T02:01:12;14.45;;;6.57;;
25653;SDS011;13511;48.622;9.230;2023-10-09T02:03:39;12.82;;;6.50;;
25653;SDS011;13511;48.622;9.230;2023-10-09T02:06:09;12.88;;;5.95;;
25653;SDS011;13511;48.622;9.230;2023-10-09T02:08:57;15.30;;;7.22;;
25653;SDS011;13511;48.622;9.230;2023-10-09T02:11:24;14.25;;;6.78;;
25653;SDS011;13511;48.622;9.230;2023-10-09T02:14:10;9.10;;;5.93;;
25653;SDS011;13511;48.622;9.230;2023-10-09T02:16:47;15.48;;;7.07;;
25653;SDS011;13511;48.622;9.230;2023-10-09T02:19:33;16.92;;;6.65;;
25653;SDS011;13511;48.622;9.230;2023-10-09T02:21:59;11.02;;;6.78;;
25653;SDS011;13511;48.622;9.230;2023-10-09T02:24:36;11.82;;;6.57;;
25653;SDS011;13511;48.622;9.230;2023-10-09T02:27:15;11.13;;;6.10;;
25653;SDS011;13511;48.622;9.230;2023-10-09T02:30:04;13.00;;;6.30;;
25653;SDS011;13511;48.622;9.230;2023-10-09T02:32:43;19.60;;;7.28;;
25653;SDS011;13511;48.622;9.230;2023-10-09T02:35:13;12.85;;;6.03;;
25653;SDS011;13511;48.622;9.230;2023-10-09T02:37:46;8.63;;;5.70;;
25653;SDS011;13511;48.622;9.230;2023-10-09T02:40:13;10.77;;;6.15;;
25653;SDS011;13511;48.622;9.230;2023-10-09T02:42:54;14.48;;;6.97;;
25653;SDS011;13511;48.622;9.230;2023-10-09T02:45:20;12.98;;;6.60;;
25653;SDS011;13511;48.622;9.230;2023-10-09T02:47:54;9.55;;;6.82;;
25653;SDS011;13511;48.622;9.230;2023-10-09T02:50:20;13.35;;;7.18;;
25653;SDS011;13511;48.622;9.230;2023-10-09T02:52:48;15.02;;;6.65;;
25653;SDS011;13511;48.622;9.230;2023-10-09T02:55:19;13.35;;;7.15;;
25653;SDS011;13511;48.622;9.230;2023-10-09T02:57:50;13.40;;;6.15;;
25653;SDS011;13511;48.622;9.230;2023-10-09T03:00:21;13.45;;;6.38;;
25653;SDS011;13511;48.622;9.230;2023-10-09T03:02:56;16.13;;;7.15;;
25653;SDS011;13511;48.622;9.230;2023-10-09T03:05:23;14.88;;;6.90;;
25653;SDS011;13511;48.622;9.230;2023-10-09T03:07:53;11.13;;;6.60;;
25653;SDS011;13511;48.622;9.230;2023-10-09T03:10:19;16.60;;;7.10;;
25653;SDS011;13511;48.622;9.230;2023-10-09T03:12:45;15.05;;;7.38;;
25653;SDS011;13511;48.622;9.230;2023-10-09T03:15:16;16.80;;;6.25;;
25653;SDS011;13511;48.622;9.230;2023-10-09T03:17:43;10.15;;;6.65;;
25653;SDS011;13511;48.622;9.230;2023-10-09T03:20:10;14.40;;;6.72;;
25653;SDS011;13511;48.622;9.230;2023-10-09T03:22:39;13.80;;;6.35;;
25653;SDS011;13511;48.622;9.230;2023-10-09T03:25:06;15.10;;;7.38;;
25653;SDS011;13511;48.622;9.230;2023-10-09T03:27:40;11.23;;;6.70;;
25653;SDS011;13511;48.622;9.230;2023-10-09T03:30:10;10.45;;;6.35;;
25653;SDS011;13511;48.622;9.230;2023-10-09T03:32:41;10.38;;;6.97;;
25653;SDS011;13511;48.622;9.230;2023-10-09T03:35:07;14.13;;;6.72;;
25653;SDS011;13511;48.622;9.230;2023-10-09T03:37:36;18.25;;;6.68;;
25653;SDS011;13511;48.622;9.230;2023-10-09T03:40:04;15.23;;;6.93;;
25653;SDS011;13511;48.622;9.230;2023-10-09T03:42:32;13.77;;;6.90;;
25653;SDS011;13511;48.622;9.230;2023-10-09T03:45:01;15.35;;;6.57;;
25653;SDS011;13511;48.622;9.230;2023-10-09T03:47:37;11.48;;;6.45;;
25653;SDS011;13511;48.622;9.230;2023-10-09T03:50:08;11.00;;;7.05;;
25653;SDS011;13511;48.622;9.230;2023-10-09T03:52:48;16.15;;;6.47;;
25653;SDS011;13511;48.622;9.230;2023-10-09T03:55:15;19.85;;;6.80;;
25653;SDS011;13511;48.622;9.230;2023-10-09T03:57:41;11.95;;;6.53;;
25653;SDS011;13511;48.622;9.230;2023-10-09T04:00:10;14.73;;;6.95;;
25653;SDS011;13511;48.622;9.230;2023-10-09T04:02:52;9.85;;;6.43;;
25653;SDS011;13511;48.622;9.230;2023-10-09T04:05:18;11.38;;;7.07;;
25653;SDS011;13511;48.622;9.230;2023-10-09T04:07:45;14.35;;;6.30;;
25653;SDS011;13511;48.622;9.230;2023-10-09T04:10:11;7.85;;;6.13;;
25653;SDS011;13511;48.622;9.230;2023-10-09T04:12:55;16.70;;;6.68;;
25653;SDS011;13511;48.622;9.230;2023-10-09T04:15:23;19.00;;;7.25;;
25653;SDS011;13511;48.622;9.230;2023-10-09T04:17:49;17.88;;;7.63;;
25653;SDS011;13511;48.622;9.230;2023-10-09T04:20:18;15.32;;;6.45;;
25653;SDS011;13511;48.622;9.230;2023-10-09T04:22:44;14.90;;;7.22;;
25653;SDS011;13511;48.622;9.230;2023-10-09T04:25:19;16.73;;;7.72;;
25653;SDS011;13511;48.622;9.230;2023-10-09T04:27:52;16.77;;;7.00;;
25653;SDS011;13511;48.622;9.230;2023-10-09T04:30:24;19.23;;;7.63;;
25653;SDS011;13511;48.622;9.230;2023-10-09T04:32:51;10.90;;;6.10;;
25653;SDS011;13511;48.622;9.230;2023-10-09T04:35:20;13.68;;;7.25;;
25653;SDS011;13511;48.622;9.230;2023-10-09T04:37:51;10.73;;;6.25;;
25653;SDS011;13511;48.622;9.230;2023-10-09T04:40:17;15.07;;;7.38;;
25653;SDS011;13511;48.622;9.230;2023-10-09T04:43:03;17.42;;;7.07;;
25653;SDS011;13511;48.622;9.230;2023-10-09T04:45:38;12.98;;;6.95;;
25653;SDS011;13511;48.622;9.230;2023-10-09T04:48:22;13.82;;;7.13;;
25653;SDS011;13511;48.622;9.230;2023-10-09T04:50:58;15.88;;;7.85;;
25653;SDS011;13511;48.622;9.230;2023-10-09T04:53:56;14.43;;;6.90;;
25653;SDS011;13511;48.622;9.230;2023-10-09T04:56:38;18.98;;;6.40;;
25653;SDS011;13511;48.622;9.230;2023-10-09T04:59:17;15.10;;;6.80;;
25653;SDS011;13511;48.622;9.230;2023-10-09T05:01:43;16.63;;;7.40;;
25653;SDS011;13511;48.622;9.230;2023-10-09T05:04:22;14.35;;;6.95;;
25653;SDS011;13511;48.622;9.230;2023-10-09T05:07:06;15.73;;;7.10;;
25653;SDS011;13511;48.622;9.230;2023-10-09T05:10:10;14.48;;;7.15;;
25653;SDS011;13511;48.622;9.230;2023-10-09T05:12:43;10.20;;;6.82;;
25653;SDS011;13511;48.622;9.230;2023-10-09T05:15:21;13.45;;;7.03;;
25653;SDS011;13511;48.622;9.230;2023-10-09T05:17:51;11.88;;;7.20;;
25653;SDS011;13511;48.622;9.230;2023-10-09T05:20:21;19.80;;;8.63;;
25653;SDS011;13511;48.622;9.230;2023-10-09T05:22:50;17.02;;;8.18;;
25653;SDS011;13511;48.622;9.230;2023-10-09T05:25:26;13.55;;;7.22;;
25653;SDS011;13511;48.622;9.230;2023-10-09T05:28:11;20.33;;;8.25;;
25653;SDS011;13511;48.622;9.230;2023-10-09T05:30:56;15.82;;;7.78;;
25653;SDS011;13511;48.622;9.230;2023-10-09T05:33:35;14.32;;;6.75;;
25653;SDS011;13511;48.622;9.230;2023-10-09T05:36:04;18.13;;;7.70;;
25653;SDS011;13511;48.622;9.230;2023-10-09T05:38:51;17.02;;;7.43;;
25653;SDS011;13511;48.622;9.230;2023-10-09T05:41:35;14.68;;;7.70;;
25653;SDS011;13511;48.622;9.230;2023-10-09T05:44:16;14.55;;;6.88;;
25653;SDS011;13511;48.622;9.230;2023-10-09T05:47:01;17.10;;;7.30;;
25653;SDS011;13511;48.622;9.230;2023-10-09T05:49:46;17.65;;;7.32;;
25653;SDS011;13511;48.622;9.230;2023-10-09T05:52:19;16.10;;;7.75;;
25653;SDS011;13511;48.622;9.230;2023-10-09T05:55:21;21.10;;;8.30;;
25653;SDS011;13511;48.622;9.230;2023-10-09T05:57:51;16.98;;;7.65;;
25653;SDS011;13511;48.622;9.230;2023-10-09T06:00:20;18.35;;;7.53;;
25653;SDS011;13511;48.622;9.230;2023-10-09T06:03:04;15.40;;;7.60;;
25653;SDS011;13511;48.622;9.230;2023-10-09T06:05:46;14.57;;;6.63;;
25653;SDS011;13511;48.622;9.230;2023-10-09T06:08:21;18.00;;;6.63;;
25653;SDS011;13511;48.622;9.230;2023-10-09T06:11:09;19.60;;;6.97;;
25653;SDS011;13511;48.622;9.230;2023-10-09T06:13:54;12.65;;;6.20;;
25653;SDS011;13511;48.622;9.230;2023-10-09T06:16:30;9.93;;;6.70;;
25653;SDS011;13511;48.622;9.230;2023-10-09T06:19:25;17.20;;;7.22;;
25653;SDS011;13511;48.622;9.230;2023-10-09T06:21:55;12.63;;;7.10;;
25653;SDS011;13511;48.622;9.230;2023-10-09T06:24:40;16.20;;;7.05;;
25653;SDS011;13511;48.622;9.230;2023-10-09T06:27:07;16.42;;;6.32;;
25653;SDS011;13511;48.622;9.230;2023-10-09T06:29:39;14.68;;;6.55;;
25653;SDS011;13511;48.622;9.230;2023-10-09T06:32:08;20.48;;;7.15;;
25653;SDS011;13511;48.622;9.230;2023-10-09T06:34:44;13.05;;;6.40;;
25653;SDS011;13511;48.622;9.230;2023-10-09T06:37:10;20.98;;;6.65;;
25653;SDS011;13511;48.622;9.230;2023-10-09T06:39:44;18.83;;;7.05;;
25653;SDS011;13511;48.622;9.230;2023-10-09T06:42:23;16.20;;;6.40;;
25653;SDS011;13511;48.622;9.230;2023-10-09T06:45:08;17.63;;;7.35;;
25653;SDS011;13511;48.622;9.230;2023-10-09T06:47:43;17.05;;;7.22;;
25653;SDS011;13511;48.622;9.230;2023-10-09T06:50:21;18.40;;;6.35;;
25653;SDS011;13511;48.622;9.230;2023-10-09T06:52:48;16.60;;;7.50;;
25653;SDS011;13511;48.622;9.230;2023-10-09T06:55:40;13.23;;;6.05;;
25653;SDS011;13511;48.622;9.230;2023-10-09T06:58:30;19.60;;;6.70;;
25653;SDS011;13511;48.622;9.230;2023-10-09T07:01:06;18.15;;;7.45;;
25653;SDS011;13511;48.622;9.230;2023-10-09T07:03:54;15.70;;;7.38;;
25653;SDS011;13511;48.622;9.230;2023-10-09T07:06:35;17.05;;;6.80;;
25653;SDS011;13511;48.622;9.230;2023-10-09T07:09:01;12.68;;;6.65;;
25653;SDS011;13511;48.622;9.230;2023-10-09T07:14:09;17.98;;;8.02;;
25653;SDS011;13511;48.622;9.230;2023-10-09T07:19:23;24.05;;;7.53;;
25653;SDS011;13511;48.622;9.230;2023-10-09T07:22:08;13.32;;;7.85;;
25653;SDS011;13511;48.622;9.230;2023-10-09T07:24:52;20.15;;;7.72;;
25653;SDS011;13511;48.622;9.230;2023-10-09T07:27:40;17.85;;;7.75;;
25653;SDS011;13511;48.622;9.230;2023-10-09T07:30:11;22.70;;;7.70;;
25653;SDS011;13511;48.622;9.230;2023-10-09T07:32:56;21.15;;;7.85;;
25653;SDS011;13511;48.622;9.230;2023-10-09T07:35:46;15.50;;;7.43;;
25653;SDS011;13511;48.622;9.230;2023-10-09T07:40:39;13.85;;;6.40;;
25653;SDS011;13511;48.622;9.230;2023-10-09T07:43:34;21.70;;;7.43;;
25653;SDS011;13511;48.622;9.230;2023-10-09T07:46:13;20.75;;;6.47;;
25653;SDS011;13511;48.622;9.230;2023-10-09T07:49:04;15.40;;;6.55;;
25653;SDS011;13511;48.622;9.230;2023-10-09T07:51:49;15.40;;;7.53;;
25653;SDS011;13511;48.622;9.230;2023-10-09T07:54:17;14.30;;;6.78;;
25653;SDS011;13511;48.622;9.230;2023-10-09T07:56:57;13.95;;;5.95;;
25653;SDS011;13511;48.622;9.230;2023-10-09T07:59:33;18.92;;;6.35;;
25653;SDS011;13511;48.622;9.230;2023-10-09T08:02:06;16.77;;;6.45;;
25653;SDS011;13511;48.622;9.230;2023-10-09T08:04:38;21.02;;;6.43;;
25653;SDS011;13511;48.622;9.230;2023-10-09T08:07:13;18.58;;;6.97;;
25653;SDS011;13511;48.622;9.230;2023-10-09T08:09:45;16.65;;;6.10;;
25653;SDS011;13511;48.622;9.230;2023-10-09T08:12:12;17.23;;;6.35;;
25653;SDS011;13511;48.622;9.230;2023-10-09T08:14:57;15.40;;;6.28;;
25653;SDS011;13511;48.622;9.230;2023-10-09T08:17:44;16.00;;;6.57;;
25653;SDS011;13511;48.622;9.230;2023-10-09T08:20:16;13.63;;;6.68;;
25653;SDS011;13511;48.622;9.230;2023-10-09T08:22:42;15.95;;;6.25;;
25653;SDS011;13511;48.622;9.230;2023-10-09T08:25:12;15.27;;;6.60;;
25653;SDS011;13511;48.622;9.230;2023-10-09T08:28:04;14.48;;;6.82;;
25653;SDS011;13511;48.622;9.230;2023-10-09T08:30:39;14.35;;;6.68;;
25653;SDS011;13511;48.622;9.230;2023-10-09T08:33:27;12.55;;;5.72;;
25653;SDS011;13511;48.622;9.230;2023-10-09T08:36:05;17.15;;;6.65;;
25653;SDS011;13511;48.622;9.230;2023-10-09T08:38:33;18.67;;;6.00;;
25653;SDS011;13511;48.622;9.230;2023-10-09T08:41:09;16.63;;;6.95;;
25653;SDS011;13511;48.622;9.230;2023-10-09T08:43:51;18.77;;;6.13;;
25653;SDS011;13511;48.622;9.230;2023-10-09T08:46:22;15.13;;;6.15;;
25653;SDS011;13511;48.622;9.230;2023-10-09T08:48:48;17.58;;;6.25;;
25653;SDS011;13511;48.622;9.230;2023-10-09T08:51:15;11.85;;;6.53;;
25653;SDS011;13511;48.622;9.230;2023-10-09T08:53:43;17.65;;;6.55;;
25653;SDS011;13511;48.622;9.230;2023-10-09T08:56:11;15.43;;;6.32;;
25653;SDS011;13511;48.622;9.230;2023-10-09T08:58:39;14.55;;;6.65;;
25653;SDS011;13511;48.622;9.230;2023-10-09T09:01:05;11.88;;;6.30;;
25653;SDS011;13511;48.622;9.230;2023-10-09T09:03:37;21.48;;;7.10;;
25653;SDS011;13511;48.622;9.230;2023-10-09T09:06:03;13.13;;;7.10;;
25653;SDS011;13511;48.622;9.230;2023-10-09T09:08:31;17.40;;;7.63;;
25653;SDS011;13511;48.622;9.230;2023-10-09T09:10:57;15.77;;;6.45;;
25653;SDS011;13511;48.622;9.230;2023-10-09T09:13:37;21.52;;;6.80;;
25653;SDS011;13511;48.622;9.230;2023-10-09T09:16:03;18.33;;;6.80;;
25653;SDS011;13511;48.622;9.230;2023-10-09T09:18:29;12.88;;;6.40;;
25653;SDS011;13511;48.622;9.230;2023-10-09T09:21:01;18.60;;;6.75;;
25653;SDS011;13511;48.622;9.230;2023-10-09T09:23:27;14.30;;;6.78;;
25653;SDS011;13511;48.622;9.230;2023-10-09T09:25:53;15.40;;;6.70;;
25653;SDS011;13511;48.622;9.230;2023-10-09T09:28:29;24.45;;;6.65;;
25653;SDS011;13511;48.622;9.230;2023-10-09T09:31:07;18.98;;;7.10;;
25653;SDS011;13511;48.622;9.230;2023-10-09T09:33:40;15.80;;;6.85;;
25653;SDS011;13511;48.622;9.230;2023-10-09T09:36:08;22.83;;;8.23;;
25653;SDS011;13511;48.622;9.230;2023-10-09T09:38:36;16.85;;;6.07;;
25653;SDS011;13511;48.622;9.230;2023-10-09T09:41:18;17.30;;;6.55;;
25653;SDS011;13511;48.622;9.230;2023-10-09T09:43:54;10.45;;;6.15;;
25653;SDS011;13511;48.622;9.230;2023-10-09T09:46:31;13.88;;;6.00;;
25653;SDS011;13511;48.622;9.230;2023-10-09T09:49:05;13.10;;;6.30;;
25653;SDS011;13511;48.622;9.230;2023-10-09T09:51:41;17.75;;;6.70;;
25653;SDS011;13511;48.622;9.230;2023-10-09T09:54:10;13.30;;;5.88;;
25653;SDS011;13511;48.622;9.230;2023-10-09T09:56:40;13.35;;;6.35;;
25653;SDS011;13511;48.622;9.230;2023-10-09T09:59:07;15.48;;;5.97;;
25653;SDS011;13511;48.622;9.230;2023-10-09T10:01:38;16.73;;;6.55;;
25653;SDS011;13511;48.622;9.230;2023-10-09T10:04:08;10.95;;;5.32;;
25653;SDS011;13511;48.622;9.230;2023-10-09T10:06:39;15.18;;;5.57;;
25653;SDS011;13511;48.622;9.230;2023-10-09T10:09:10;14.18;;;5.30;;
25653;SDS011;13511;48.622;9.230;2023-10-09T10:11:40;19.60;;;5.43;;
25653;SDS011;13511;48.622;9.230;2023-10-09T10:14:09;18.23;;;5.53;;
25653;SDS011;13511;48.622;9.230;2023-10-09T10:19:21;19.65;;;5.25;;
25653;SDS011;13511;48.622;9.230;2023-10-09T10:21:47;20.23;;;5.50;;
25653;SDS011;13511;48.622;9.230;2023-10-09T10:29:51;16.45;;;4.88;;
25653;SDS011;13511;48.622;9.230;2023-10-09T10:35:17;18.67;;;5.32;;
25653;SDS011;13511;48.622;9.230;2023-10-09T10:37:45;22.90;;;5.70;;
25653;SDS011;13511;48.622;9.230;2023-10-09T10:40:26;21.05;;;4.85;;
25653;SDS011;13511;48.622;9.230;2023-10-09T10:43:22;18.13;;;5.65;;
25653;SDS011;13511;48.622;9.230;2023-10-09T10:46:07;15.18;;;5.13;;
25653;SDS011;13511;48.622;9.230;2023-10-09T10:48:40;23.52;;;5.93;;
25653;SDS011;13511;48.622;9.230;2023-10-09T10:51:11;26.27;;;6.18;;
25653;SDS011;13511;48.622;9.230;2023-10-09T10:53:52;18.35;;;5.40;;
25653;SDS011;13511;48.622;9.230;2023-10-09T10:56:24;20.42;;;5.63;;
25653;SDS011;13511;48.622;9.230;2023-10-09T10:59:01;18.42;;;5.28;;
25653;SDS011;13511;48.622;9.230;2023-10-09T11:01:30;20.55;;;5.95;;
25653;SDS011;13511;48.622;9.230;2023-10-09T11:04:18;26.13;;;6.60;;
25653;SDS011;13511;48.622;9.230;2023-10-09T11:06:57;23.98;;;5.93;;
25653;SDS011;13511;48.622;9.230;2023-10-09T11:12:28;21.63;;;6.50;;
25653;SDS011;13511;48.622;9.230;2023-10-09T11:15:08;18.88;;;5.38;;
25653;SDS011;13511;48.622;9.230;2023-10-09T11:17:58;27.25;;;6.20;;
25653;SDS011;13511;48.622;9.230;2023-10-09T11:20:24;22.60;;;5.88;;
25653;SDS011;13511;48.622;9.230;2023-10-09T11:22:57;20.77;;;5.70;;
25653;SDS011;13511;48.622;9.230;2023-10-09T11:25:35;23.58;;;6.40;;
25653;SDS011;13511;48.622;9.230;2023-10-09T11:28:18;23.80;;;6.70;;
25653;SDS011;13511;48.622;9.230;2023-10-09T11:31:06;27.08;;;5.78;;
25653;SDS011;13511;48.622;9.230;2023-10-09T11:33:42;20.42;;;7.18;;
25653;SDS011;13511;48.622;9.230;2023-10-09T11:36:08;16.42;;;6.03;;
25653;SDS011;13511;48.622;9.230;2023-10-09T11:38:37;26.95;;;6.50;;
25653;SDS011;13511;48.622;9.230;2023-10-09T11:41:16;27.05;;;6.63;;
25653;SDS011;13511;48.622;9.230;2023-10-09T11:43:50;21.58;;;6.00;;
25653;SDS011;13511;48.622;9.230;2023-10-09T11:46:16;18.08;;;5.82;;
25653;SDS011;13511;48.622;9.230;2023-10-09T11:49:05;36.08;;;6.65;;
25653;SDS011;13511;48.622;9.230;2023-10-09T11:51:46;28.85;;;7.70;;
25653;SDS011;13511;48.622;9.230;2023-10-09T11:54:33;19.58;;;5.85;;
25653;SDS011;13511;48.622;9.230;2023-10-09T11:57:00;28.58;;;7.03;;
25653;SDS011;13511;48.622;9.230;2023-10-09T11:59:29;34.88;;;6.65;;
25653;SDS011;13511;48.622;9.230;2023-10-09T12:02:02;23.38;;;5.93;;
25653;SDS011;13511;48.622;9.230;2023-10-09T12:04:29;19.98;;;6.03;;
25653;SDS011;13511;48.622;9.230;2023-10-09T12:06:58;28.10;;;7.30;;
25653;SDS011;13511;48.622;9.230;2023-10-09T12:09:34;23.08;;;6.65;;
25653;SDS011;13511;48.622;9.230;2023-10-09T12:12:01;26.45;;;7.05;;
25653;SDS011;13511;48.622;9.230;2023-10-09T12:14:28;30.05;;;6.93;;
25653;SDS011;13511;48.622;9.230;2023-10-09T12:17:02;28.17;;;6.70;;
25653;SDS011;13511;48.622;9.230;2023-10-09T12:19:31;24.70;;;6.40;;
25653;SDS011;13511;48.622;9.230;2023-10-09T12:21:57;21.90;;;6.13;;
25653;SDS011;13511;48.622;9.230;2023-10-09T12:24:25;26.65;;;6.38;;
25653;SDS011;13511;48.622;9.230;2023-10-09T12:26:54;29.63;;;7.22;;
25653;SDS011;13511;48.622;9.230;2023-10-09T12:29:20;21.98;;;6.55;;
25653;SDS011;13511;48.622;9.230;2023-10-09T12:31:46;24.65;;;6.70;;
25653;SDS011;13511;48.622;9.230;2023-10-09T12:34:12;29.13;;;6.95;;
25653;SDS011;13511;48.622;9.230;2023-10-09T12:36:47;32.70;;;7.47;;
25653;SDS011;13511;48.622;9.230;2023-10-09T12:39:14;26.10;;;6.78;;
25653;SDS011;13511;48.622;9.230;2023-10-09T12:41:46;22.73;;;6.35;;
25653;SDS011;13511;48.622;9.230;2023-10-09T12:44:13;24.67;;;6.43;;
25653;SDS011;13511;48.622;9.230;2023-10-09T12:46:44;30.98;;;6.13;;
25653;SDS011;13511;48.622;9.230;2023-10-09T12:49:19;25.63;;;6.95;;
25653;SDS011;13511;48.622;9.230;2023-10-09T12:51:50;23.35;;;7.07;;
25653;SDS011;13511;48.622;9.230;2023-10-09T12:54:16;27.52;;;6.57;;
25653;SDS011;13511;48.622;9.230;2023-10-09T12:56:43;23.88;;;6.13;;
25653;SDS011;13511;48.622;9.230;2023-10-09T12:59:13;23.33;;;6.63;;
25653;SDS011;13511;48.622;9.230;2023-10-09T13:01:40;23.92;;;6.50;;
25653;SDS011;13511;48.622;9.230;2023-10-09T13:04:10;34.13;;;7.15;;
25653;SDS011;13511;48.622;9.230;2023-10-09T13:06:43;27.15;;;6.15;;
25653;SDS011;13511;48.622;9.230;2023-10-09T13:09:15;28.63;;;6.57;;
25653;SDS011;13511;48.622;9.230;2023-10-09T13:11:58;24.73;;;6.25;;
25653;SDS011;13511;48.622;9.230;2023-10-09T13:14:25;24.48;;;6.68;;
25653;SDS011;13511;48.622;9.230;2023-10-09T13:16:51;25.05;;;6.55;;
25653;SDS011;13511;48.622;9.230;2023-10-09T13:19:18;21.48;;;6.57;;
25653;SDS011;13511;48.622;9.230;2023-10-09T13:21:44;23.95;;;6.72;;
25653;SDS011;13511;48.622;9.230;2023-10-09T13:24:11;27.45;;;7.07;;
25653;SDS011;13511;48.622;9.230;2023-10-09T13:26:49;25.98;;;7.13;;
25653;SDS011;13511;48.622;9.230;2023-10-09T13:29:23;23.92;;;7.03;;
25653;SDS011;13511;48.622;9.230;2023-10-09T13:31:49;20.15;;;6.53;;
25653;SDS011;13511;48.622;9.230;2023-10-09T13:34:17;25.17;;;6.30;;
25653;SDS011;13511;48.622;9.230;2023-10-09T13:36:43;19.70;;;6.05;;
25653;SDS011;13511;48.622;9.230;2023-10-09T13:39:18;23.50;;;5.97;;
25653;SDS011;13511;48.622;9.230;2023-10-09T13:41:44;18.70;;;6.40;;
25653;SDS011;13511;48.622;9.230;2023-10-09T13:44:10;25.40;;;6.07;;
25653;SDS011;13511;48.622;9.230;2023-10-09T13:46:36;27.15;;;6.90;;
25653;SDS011;13511;48.622;9.230;2023-10-09T13:49:15;29.40;;;6.90;;
25653;SDS011;13511;48.622;9.230;2023-10-09T13:51:41;33.72;;;6.72;;
25653;SDS011;13511;48.622;9.230;2023-10-09T13:54:10;27.48;;;6.75;;
25653;SDS011;13511;48.622;9.230;2023-10-09T13:56:44;26.15;;;6.35;;
25653;SDS011;13511;48.622;9.230;2023-10-09T13:59:10;23.02;;;6.50;;
25653;SDS011;13511;48.622;9.230;2023-10-09T14:01:37;25.30;;;6.13;;
25653;SDS011;13511;48.622;9.230;2023-10-09T14:04:04;30.50;;;6.93;;
25653;SDS011;13511;48.622;9.230;2023-10-09T14:06:32;19.63;;;6.78;;
25653;SDS011;13511;48.622;9.230;2023-10-09T14:09:02;16.73;;;6.35;;
25653;SDS011;13511;48.622;9.230;2023-10-09T14:11:33;18.92;;;6.80;;
25653;SDS011;13511;48.622;9.230;2023-10-09T14:14:04;20.48;;;6.50;;
25653;SDS011;13511;48.622;9.230;2023-10-09T14:16:35;22.13;;;6.70;;
25653;SDS011;13511;48.622;9.230;2023-10-09T14:19:01;21.00;;;6.97;;
25653;SDS011;13511;48.622;9.230;2023-10-09T14:21:32;12.90;;;5.85;;
25653;SDS011;13511;48.622;9.230;2023-10-09T14:24:03;19.83;;;6.32;;
25653;SDS011;13511;48.622;9.230;2023-10-09T14:26:40;17.02;;;7.88;;
25653;SDS011;13511;48.622;9.230;2023-10-09T14:29:06;23.48;;;7.93;;
25653;SDS011;13511;48.622;9.230;2023-10-09T14:31:32;24.75;;;6.70;;
25653;SDS011;13511;48.622;9.230;2023-10-09T14:34:04;17.13;;;6.53;;
25653;SDS011;13511;48.622;9.230;2023-10-09T14:36:30;21.05;;;7.57;;
25653;SDS011;13511;48.622;9.230;2023-10-09T14:39:02;27.33;;;7.40;;
25653;SDS011;13511;48.622;9.230;2023-10-09T14:41:30;21.65;;;7.18;;
25653;SDS011;13511;48.622;9.230;2023-10-09T14:43:58;21.17;;;7.95;;
25653;SDS011;13511;48.622;9.230;2023-10-09T14:46:24;26.67;;;7.13;;
25653;SDS011;13511;48.622;9.230;2023-10-09T14:48:52;18.73;;;6.85;;
25653;SDS011;13511;48.622;9.230;2023-10-09T14:51:22;20.98;;;7.03;;
25653;SDS011;13511;48.622;9.230;2023-10-09T14:53:57;19.65;;;6.88;;
25653;SDS011;13511;48.622;9.230;2023-10-09T14:56:27;20.50;;;7.35;;
25653;SDS011;13511;48.622;9.230;2023-10-09T14:58:56;23.38;;;6.85;;
25653;SDS011;13511;48.622;9.230;2023-10-09T15:01:26;27.48;;;7.68;;
25653;SDS011;13511;48.622;9.230;2023-10-09T15:03:56;19.50;;;6.82;;
25653;SDS011;13511;48.622;9.230;2023-10-09T15:06:28;21.45;;;8.40;;
25653;SDS011;13511;48.622;9.230;2023-10-09T15:08:58;21.50;;;7.30;;
25653;SDS011;13511;48.622;9.230;2023-10-09T15:11:32;23.13;;;7.20;;
25653;SDS011;13511;48.622;9.230;2023-10-09T15:13:58;20.92;;;7.00;;
25653;SDS011;13511;48.622;9.230;2023-10-09T15:16:24;21.88;;;7.47;;
25653;SDS011;13511;48.622;9.230;2023-10-09T15:18:54;23.38;;;6.68;;
25653;SDS011;13511;48.622;9.230;2023-10-09T15:21:22;18.75;;;7.30;;
25653;SDS011;13511;48.622;9.230;2023-10-09T15:23:51;20.55;;;6.82;;
25653;SDS011;13511;48.622;9.230;2023-10-09T15:26:19;21.48;;;8.25;;
25653;SDS011;13511;48.622;9.230;2023-10-09T15:28:46;25.40;;;7.28;;
25653;SDS011;13511;48.622;9.230;2023-10-09T15:31:14;14.95;;;6.72;;
25653;SDS011;13511;48.622;9.230;2023-10-09T15:33:41;17.33;;;6.68;;
25653;SDS011;13511;48.622;9.230;2023-10-09T15:36:14;21.10;;;6.65;;
25653;SDS011;13511;48.622;9.230;2023-10-09T15:38:45;13.73;;;6.22;;